Time;durP1;ratioP1;P1;durP2;ratioP2;P2;SDS_P1;SDS_P2;PMS_P1;PMS_P2;Temp;Humidity;BMP_temperature;BMP_pressure;BME280_temperature;BME280_humidity;BME280_pressure;Samples;Min_cycle;Max_cycle;Signal;HPM_P1;HPM_P2
2022/03/11 00:01:22;;;;;;;9.68;6.32;;;5.80;91.30;;;;;;5073590;28;20454;-69
2022/03/11 00:03:49;;;;;;;12.55;6.25;;;5.80;91.20;;;;;;5075169;28;20411;-70
2022/03/11 00:06:15;;;;;;;11.18;6.45;;;5.80;91.40;;;;;;5073989;28;20052;-70
2022/03/11 00:08:44;;;;;;;9.50;6.05;;;5.80;91.30;;;;;;5072502;28;20114;-69
2022/03/11 00:11:10;;;;;;;10.18;6.15;;;5.80;91.60;;;;;;5075101;28;20106;-69
2022/03/11 00:13:37;;;;;;;12.30;6.35;;;5.80;91.60;;;;;;5073478;28;20114;-70
2022/03/11 00:16:05;;;;;;;9.23;6.22;;;5.80;91.80;;;;;;5073027;28;20098;-69
2022/03/11 00:18:32;;;;;;;12.23;6.80;;;5.70;91.60;;;;;;5073549;28;20049;-70
2022/03/11 00:20:58;;;;;;;10.18;6.10;;;5.70;92.00;;;;;;5073668;28;20044;-69
2022/03/11 00:23:25;;;;;;;10.10;5.88;;;5.70;92.30;;;;;;5072862;28;20102;-69
2022/03/11 00:25:53;;;;;;;11.20;6.57;;;5.70;92.30;;;;;;5073498;28;20078;-69
2022/03/11 00:28:20;;;;;;;10.38;5.75;;;5.60;92.60;;;;;;5073425;28;20064;-69
2022/03/11 00:30:47;;;;;;;10.93;6.10;;;5.70;92.50;;;;;;5072923;28;20049;-69
2022/03/11 00:33:14;;;;;;;14.15;6.65;;;5.60;92.90;;;;;;5073602;28;20113;-70
2022/03/11 00:35:41;;;;;;;9.75;6.22;;;5.60;93.10;;;;;;5074874;28;20061;-69
2022/03/11 00:38:08;;;;;;;12.68;5.90;;;5.60;93.00;;;;;;5073789;28;20044;-69
2022/03/11 00:40:35;;;;;;;8.20;5.50;;;5.50;93.40;;;;;;5072940;28;20136;-69
2022/03/11 00:43:03;;;;;;;9.98;6.03;;;5.50;93.60;;;;;;5074606;28;20048;-69
2022/03/11 00:45:30;;;;;;;10.35;6.55;;;5.40;94.40;;;;;;5073224;28;20053;-69
2022/03/11 00:47:57;;;;;;;10.00;6.68;;;5.40;94.20;;;;;;5072936;28;20048;-69
2022/03/11 00:50:24;;;;;;;14.32;6.45;;;5.40;94.80;;;;;;5071909;28;20510;-69
2022/03/11 00:52:51;;;;;;;9.35;6.57;;;5.30;94.80;;;;;;5073190;28;20078;-69
2022/03/11 00:55:18;;;;;;;9.95;5.57;;;5.30;94.90;;;;;;5072830;28;20060;-69
2022/03/11 00:57:45;;;;;;;11.32;6.10;;;5.20;96.00;;;;;;5073043;28;20056;-68
2022/03/11 01:00:15;;;;;;;9.45;6.38;;;5.10;95.90;;;;;;5072701;28;20048;-69
2022/03/11 01:02:42;;;;;;;11.77;6.00;;;5.10;96.10;;;;;;5073969;28;20056;-68
2022/03/11 01:05:10;;;;;;;12.32;6.25;;;5.00;96.30;;;;;;5071721;28;20067;-69
2022/03/11 01:07:37;;;;;;;12.73;6.38;;;5.00;96.90;;;;;;5072741;28;20067;-69
2022/03/11 01:10:05;;;;;;;10.18;5.63;;;5.00;97.50;;;;;;5071942;28;20086;-69
2022/03/11 01:12:32;;;;;;;11.88;5.78;;;5.00;98.00;;;;;;5073091;28;20052;-70
2022/03/11 01:14:59;;;;;;;10.75;6.45;;;4.90;98.20;;;;;;5073822;28;20048;-69
2022/03/11 01:17:27;;;;;;;10.32;6.00;;;4.90;98.70;;;;;;5072887;28;20385;-69
2022/03/11 01:19:54;;;;;;;12.10;6.85;;;4.90;99.20;;;;;;5071594;28;20051;-69
2022/03/11 01:22:21;;;;;;;8.93;6.30;;;4.90;99.60;;;;;;5073588;28;20078;-69
2022/03/11 01:24:48;;;;;;;11.40;6.57;;;4.80;99.60;;;;;;5072291;28;20101;-69
2022/03/11 01:27:15;;;;;;;11.82;6.60;;;4.80;99.90;;;;;;5071736;28;20121;-69
2022/03/11 01:29:41;;;;;;;13.15;6.15;;;4.80;99.90;;;;;;5073093;28;20055;-70
2022/03/11 01:32:08;;;;;;;14.27;7.05;;;4.70;99.90;;;;;;5072908;28;20391;-69
2022/03/11 01:34:37;;;;;;;10.02;6.10;;;4.70;99.90;;;;;;5071496;28;20049;-68
2022/03/11 01:37:04;;;;;;;12.27;7.05;;;4.70;99.90;;;;;;5073538;28;20048;-68
2022/03/11 01:39:31;;;;;;;15.75;7.22;;;4.60;99.90;;;;;;5072292;28;20547;-69
2022/03/11 01:41:58;;;;;;;11.82;7.07;;;4.50;99.90;;;;;;5073451;28;20048;-69
2022/03/11 01:44:26;;;;;;;18.20;7.88;;;4.60;99.90;;;;;;5071746;28;20053;-68
2022/03/11 01:46:53;;;;;;;13.00;8.00;;;4.50;99.90;;;;;;5072565;28;20048;-70
2022/03/11 01:49:20;;;;;;;15.15;7.65;;;4.50;99.90;;;;;;5071693;28;20102;-70
2022/03/11 01:51:49;;;;;;;12.02;7.72;;;4.50;99.90;;;;;;5073347;28;20098;-70
2022/03/11 01:54:16;;;;;;;13.50;8.32;;;4.40;99.90;;;;;;5071118;28;20048;-70
2022/03/11 01:56:43;;;;;;;13.13;7.47;;;4.40;99.90;;;;;;5071739;28;20546;-70
2022/03/11 01:59:11;;;;;;;15.15;8.05;;;4.40;99.90;;;;;;5071741;28;20125;-69
2022/03/11 02:01:38;;;;;;;18.23;8.30;;;4.40;99.90;;;;;;5070678;28;20051;-69
2022/03/11 02:04:05;;;;;;;17.98;7.78;;;4.40;99.90;;;;;;5073122;28;20048;-69
2022/03/11 02:06:33;;;;;;;14.77;8.57;;;4.30;99.90;;;;;;5071703;28;20063;-69
2022/03/11 02:09:03;;;;;;;14.00;8.35;;;4.30;99.90;;;;;;5069892;28;20419;-69
2022/03/11 02:11:30;;;;;;;14.65;9.00;;;4.30;99.90;;;;;;5071582;28;20169;-69
2022/03/11 02:13:58;;;;;;;14.27;8.80;;;4.20;99.90;;;;;;5072681;28;20056;-69
2022/03/11 02:16:27;;;;;;;16.95;9.27;;;4.20;99.90;;;;;;5070935;28;20068;-69
2022/03/11 02:18:54;;;;;;;16.45;8.50;;;4.20;99.90;;;;;;5072578;28;20106;-69
2022/03/11 02:21:22;;;;;;;12.15;9.20;;;4.10;99.90;;;;;;5071376;28;20118;-69
2022/03/11 02:23:52;;;;;;;15.13;9.02;;;4.20;99.90;;;;;;5071745;28;20105;-69
2022/03/11 02:26:20;;;;;;;15.23;9.23;;;4.10;99.90;;;;;;5072772;28;20048;-70
2022/03/11 02:28:49;;;;;;;18.65;9.38;;;4.10;99.90;;;;;;5071099;28;20121;-69
2022/03/11 02:31:18;;;;;;;16.05;9.05;;;4.00;99.90;;;;;;5072474;28;20044;-69
2022/03/11 02:33:44;;;;;;;15.38;9.80;;;4.00;99.90;;;;;;5072550;28;20053;-69
2022/03/11 02:36:11;;;;;;;15.45;9.80;;;4.00;99.90;;;;;;5070445;28;20049;-69
2022/03/11 02:38:39;;;;;;;16.75;9.43;;;4.00;99.90;;;;;;5070921;28;20048;-69
2022/03/11 02:41:07;;;;;;;13.55;9.25;;;4.00;99.90;;;;;;5070859;28;20052;-69
2022/03/11 02:43:34;;;;;;;16.73;10.32;;;3.90;99.90;;;;;;5070505;28;20098;-69
2022/03/11 02:46:01;;;;;;;16.10;10.43;;;3.90;99.90;;;;;;5070571;28;20052;-69
2022/03/11 02:48:28;;;;;;;20.35;10.98;;;3.90;99.90;;;;;;5070765;28;20102;-69
2022/03/11 02:50:56;;;;;;;17.73;11.27;;;3.90;99.90;;;;;;5070578;28;20044;-70
2022/03/11 02:53:23;;;;;;;16.58;9.95;;;3.90;99.90;;;;;;5071432;28;20060;-68
2022/03/11 02:55:50;;;;;;;16.00;10.52;;;3.80;99.90;;;;;;5070960;28;20052;-69
2022/03/11 02:58:18;;;;;;;18.35;11.25;;;3.80;99.90;;;;;;5071831;28;20056;-69
2022/03/11 03:00:45;;;;;;;18.17;10.95;;;3.80;99.90;;;;;;5071664;28;20113;-69
2022/03/11 03:03:12;;;;;;;24.10;11.98;;;3.80;99.90;;;;;;5072093;28;20118;-70
2022/03/11 03:05:39;;;;;;;21.85;12.35;;;3.80;99.90;;;;;;5070361;28;20063;-69
2022/03/11 03:08:06;;;;;;;21.98;11.38;;;3.80;99.90;;;;;;5071594;28;20048;-68
2022/03/11 03:10:33;;;;;;;23.80;11.48;;;3.80;99.90;;;;;;5070742;28;20053;-69
2022/03/11 03:13:00;;;;;;;18.10;11.05;;;3.70;99.90;;;;;;5070626;28;20169;-69
2022/03/11 03:15:28;;;;;;;19.23;11.55;;;3.70;99.90;;;;;;5070986;28;20151;-69
2022/03/11 03:17:55;;;;;;;20.73;11.60;;;3.70;99.90;;;;;;5070409;28;20049;-69
2022/03/11 03:20:22;;;;;;;24.00;11.85;;;3.70;99.90;;;;;;5073693;28;20122;-69
2022/03/11 03:22:49;;;;;;;19.52;11.65;;;3.70;99.90;;;;;;5076223;28;20446;-69
2022/03/11 03:25:16;;;;;;;26.63;13.25;;;3.70;99.90;;;;;;5075950;28;20048;-69
2022/03/11 03:27:42;;;;;;;20.33;12.35;;;3.70;99.90;;;;;;5076469;28;20068;-69
2022/03/11 03:30:11;;;;;;;22.35;11.98;;;3.70;99.90;;;;;;5076165;28;20053;-69
2022/03/11 03:32:41;;;;;;;21.92;12.98;;;3.60;99.90;;;;;;5074118;28;20045;-69
2022/03/11 03:35:09;;;;;;;23.10;11.85;;;3.60;99.90;;;;;;5075144;28;20053;-69
2022/03/11 03:37:36;;;;;;;23.48;12.48;;;3.70;99.90;;;;;;5074384;28;20094;-69
2022/03/11 03:40:04;;;;;;;20.08;12.77;;;3.60;99.90;;;;;;5074193;28;20055;-70
2022/03/11 03:42:31;;;;;;;20.55;11.88;;;3.60;99.90;;;;;;5074841;28;20634;-70
2022/03/11 03:44:58;;;;;;;20.67;13.07;;;3.60;99.90;;;;;;5074655;28;20053;-69
2022/03/11 03:47:25;;;;;;;25.33;14.45;;;3.60;99.90;;;;;;5074296;28;20056;-69
2022/03/11 03:49:53;;;;;;;21.25;12.43;;;3.60;99.90;;;;;;5074692;28;20117;-70
2022/03/11 03:52:20;;;;;;;28.33;13.90;;;3.50;99.90;;;;;;5074356;28;20403;-70
2022/03/11 03:54:47;;;;;;;21.88;12.82;;;3.50;99.90;;;;;;5074336;28;20052;-67
2022/03/11 03:57:14;;;;;;;22.20;12.30;;;3.50;99.90;;;;;;5074651;28;20048;-66
2022/03/11 03:59:40;;;;;;;22.75;13.15;;;3.50;99.90;;;;;;5074095;28;20113;-66
2022/03/11 04:02:07;;;;;;;22.90;12.82;;;3.50;99.90;;;;;;5074900;28;20053;-66
2022/03/11 04:04:34;;;;;;;25.17;12.70;;;3.60;99.90;;;;;;5075684;28;20090;-66
2022/03/11 04:07:02;;;;;;;23.98;13.70;;;3.40;99.90;;;;;;5075176;28;20110;-66
2022/03/11 04:09:29;;;;;;;23.70;12.73;;;2.90;99.90;;;;;;5075615;28;20106;-67
2022/03/11 04:11:56;;;;;;;20.45;13.18;;;3.50;99.90;;;;;;5074212;28;20044;-66
2022/03/11 04:14:23;;;;;;;23.95;13.45;;;3.40;99.90;;;;;;5073772;28;20137;-67
2022/03/11 04:16:50;;;;;;;21.67;13.27;;;3.40;99.90;;;;;;5075407;28;20106;-67
2022/03/11 04:19:17;;;;;;;21.25;13.00;;;3.40;99.90;;;;;;5075360;28;20056;-69
2022/03/11 04:21:44;;;;;;;22.63;13.27;;;3.40;99.90;;;;;;5073338;28;20429;-67
2022/03/11 04:24:14;;;;;;;22.02;13.48;;;3.50;99.90;;;;;;5074263;28;20059;-70
2022/03/11 04:26:41;;;;;;;;;;;3.40;99.90;;;;;;5075602;28;20049;-69
2022/03/11 04:29:09;;;;;;;22.30;12.55;;;3.30;99.90;;;;;;5073574;28;19924;-69
2022/03/11 04:31:35;;;;;;;24.23;13.73;;;3.30;99.90;;;;;;5072481;28;20044;-69
2022/03/11 04:34:04;;;;;;;20.55;13.00;;;3.30;99.90;;;;;;5073964;28;20109;-69
2022/03/11 04:36:32;;;;;;;22.92;13.35;;;3.40;99.90;;;;;;5072944;28;20052;-69
2022/03/11 04:39:00;;;;;;;19.73;12.25;;;3.30;99.90;;;;;;5073937;28;20054;-69
2022/03/11 04:41:28;;;;;;;22.63;13.27;;;3.20;99.90;;;;;;5073503;28;20116;-69
2022/03/11 04:43:55;;;;;;;20.75;14.02;;;3.20;99.90;;;;;;5072614;28;20044;-68
2022/03/11 04:46:22;;;;;;;20.77;13.77;;;3.20;99.90;;;;;;5073538;28;20098;-67
2022/03/11 04:48:49;;;;;;;21.45;14.50;;;3.10;99.90;;;;;;5075146;28;20060;-69
2022/03/11 04:51:16;;;;;;;21.17;14.18;;;3.10;99.90;;;;;;5072815;28;20055;-68
2022/03/11 04:53:43;;;;;;;25.42;13.93;;;3.10;99.90;;;;;;5075097;28;20056;-68
2022/03/11 04:56:10;;;;;;;23.75;14.20;;;3.10;99.90;;;;;;5074831;28;20048;-69
2022/03/11 04:58:38;;;;;;;22.88;13.77;;;3.00;99.90;;;;;;5072880;28;20482;-69
2022/03/11 05:01:07;;;;;;;27.20;14.20;;;2.90;99.90;;;;;;5073483;28;20492;-69
2022/03/11 05:03:33;;;;;;;25.33;13.73;;;3.00;99.90;;;;;;5073695;28;20060;-69
2022/03/11 05:06:00;;;;;;;27.30;14.02;;;2.90;99.90;;;;;;5074391;28;20048;-69
2022/03/11 05:08:27;;;;;;;23.80;14.20;;;2.90;99.90;;;;;;5074459;28;20056;-68
2022/03/11 05:10:54;;;;;;;25.38;13.82;;;2.90;99.90;;;;;;5072659;28;20197;-69
2022/03/11 05:13:22;;;;;;;23.13;14.10;;;2.90;99.90;;;;;;5072816;28;20056;-69
2022/03/11 05:15:50;;;;;;;34.60;14.60;;;2.90;99.90;;;;;;5074819;28;20056;-66
2022/03/11 05:18:17;;;;;;;24.23;13.73;;;2.90;99.90;;;;;;5072411;28;20117;-67
2022/03/11 05:20:43;;;;;;;22.05;13.40;;;2.90;99.90;;;;;;5072792;28;20113;-66
2022/03/11 05:23:10;;;;;;;25.70;14.75;;;2.80;99.90;;;;;;5072635;28;20549;-65
2022/03/11 05:25:37;;;;;;;22.20;12.27;;;2.80;99.90;;;;;;5057365;28;20139;-67
2022/03/11 05:28:04;;;;;;;22.10;13.85;;;2.80;99.90;;;;;;5059363;28;20488;-66
2022/03/11 05:30:31;;;;;;;26.63;14.65;;;2.80;99.90;;;;;;5066461;28;20518;-66
2022/03/11 05:32:59;;;;;;;23.05;14.13;;;2.80;99.90;;;;;;5066464;28;20496;-67
2022/03/11 05:35:26;;;;;;;21.63;13.55;;;2.80;99.90;;;;;;5064699;28;20500;-66
2022/03/11 05:37:53;;;;;;;26.15;13.73;;;2.90;99.90;;;;;;5061464;28;20092;-67
2022/03/11 05:40:20;;;;;;;23.70;13.85;;;2.80;99.90;;;;;;5064758;28;20474;-67
2022/03/11 05:42:47;;;;;;;24.67;14.15;;;2.80;99.90;;;;;;5064243;28;20044;-66
2022/03/11 05:45:14;;;;;;;21.38;13.68;;;2.80;99.90;;;;;;5069981;28;20106;-66
2022/03/11 05:47:42;;;;;;;24.23;13.35;;;2.80;99.90;;;;;;5064515;28;20439;-66
2022/03/11 05:50:12;;;;;;;26.58;14.00;;;2.90;99.90;;;;;;5062295;28;20052;-66
2022/03/11 05:52:40;;;;;;;21.13;13.43;;;2.90;99.90;;;;;;5062329;28;20086;-66
2022/03/11 05:55:07;;;;;;;27.77;14.77;;;2.80;99.90;;;;;;5068808;28;20052;-66
2022/03/11 05:57:34;;;;;;;22.80;13.20;;;2.80;99.90;;;;;;5064337;28;20123;-67
2022/03/11 06:00:01;;;;;;;20.45;12.73;;;2.80;99.90;;;;;;5064010;28;20093;-66
2022/03/11 06:02:28;;;;;;;21.10;13.85;;;2.90;99.90;;;;;;5063717;28;20492;-66
2022/03/11 06:04:55;;;;;;;26.52;13.10;;;2.80;99.90;;;;;;5063402;28;20090;-66
2022/03/11 06:07:23;;;;;;;26.70;13.77;;;2.80;99.90;;;;;;5062777;28;20053;-66
2022/03/11 06:09:50;;;;;;;23.25;13.43;;;2.80;99.90;;;;;;5069535;28;20063;-65
2022/03/11 06:12:17;;;;;;;23.77;14.20;;;2.80;99.90;;;;;;5065134;28;20086;-66
2022/03/11 06:14:43;;;;;;;24.55;13.77;;;2.80;99.90;;;;;;5064216;28;20110;-66
2022/03/11 06:17:10;;;;;;;26.98;13.63;;;2.70;99.90;;;;;;5063212;28;20496;-65
2022/03/11 06:19:37;;;;;;;26.95;15.13;;;2.70;99.90;;;;;;5060557;28;20056;-65
2022/03/11 06:22:04;;;;;;;26.55;14.77;;;2.70;99.90;;;;;;5052326;28;20095;-65
2022/03/11 06:24:33;;;;;;;22.55;13.32;;;2.70;99.90;;;;;;5051006;28;20504;-65
2022/03/11 06:27:00;;;;;;;24.50;14.15;;;2.70;99.90;;;;;;5057806;28;20077;-65
2022/03/11 06:29:26;;;;;;;27.05;14.70;;;2.70;99.90;;;;;;5062086;28;20480;-66
2022/03/11 06:31:53;;;;;;;22.38;13.82;;;2.70;99.90;;;;;;5063902;28;20507;-66
2022/03/11 06:34:20;;;;;;;20.25;12.57;;;2.70;99.90;;;;;;5063913;28;20045;-67
2022/03/11 06:36:47;;;;;;;24.13;14.25;;;2.70;99.90;;;;;;5062257;28;20454;-66
2022/03/11 06:39:14;;;;;;;21.38;13.57;;;2.70;99.90;;;;;;5063554;28;20064;-66
2022/03/11 06:41:43;;;;;;;23.75;13.13;;;2.80;99.90;;;;;;5064907;28;20140;-65
2022/03/11 06:44:10;;;;;;;22.20;13.85;;;2.80;99.90;;;;;;5061527;28;20110;-65
2022/03/11 06:46:37;;;;;;;20.20;12.75;;;2.80;99.90;;;;;;5063210;28;20110;-65
2022/03/11 06:49:05;;;;;;;22.23;13.10;;;2.80;99.90;;;;;;5063735;28;20057;-65
2022/03/11 06:51:32;;;;;;;20.63;12.05;;;2.80;99.90;;;;;;5062517;28;20057;-65
2022/03/11 06:53:59;;;;;;;22.45;13.27;;;2.90;99.90;;;;;;5064061;28;20056;-65
2022/03/11 06:56:26;;;;;;;25.30;13.32;;;2.90;99.90;;;;;;5071947;28;20389;-65
2022/03/11 06:58:55;;;;;;;20.70;12.40;;;3.00;99.90;;;;;;5066782;28;20531;-65
2022/03/11 07:01:24;;;;;;;23.70;13.18;;;3.00;99.90;;;;;;5058089;28;20060;-65
2022/03/11 07:03:50;;;;;;;21.98;13.60;;;3.00;99.90;;;;;;5072233;28;20055;-63
2022/03/11 07:06:17;;;;;;;22.13;13.05;;;3.10;99.90;;;;;;5077902;28;20397;-64
2022/03/11 07:08:44;;;;;;;27.73;13.38;;;3.20;99.90;;;;;;5075592;28;20461;-64
2022/03/11 07:11:11;;;;;;;25.48;13.68;;;3.30;99.90;;;;;;5077163;28;20048;-65
2022/03/11 07:13:38;;;;;;;21.30;13.68;;;3.70;99.90;;;;;;5077337;28;20431;-65
2022/03/11 07:16:08;;;;;;;22.17;13.52;;;4.60;99.90;;;;;;5076893;28;20053;-65
2022/03/11 07:18:35;;;;;;;20.80;12.30;;;5.20;99.90;;;;;;5075252;28;20052;-65
2022/03/11 07:21:02;;;;;;;21.52;12.57;;;5.60;99.90;;;;;;5076273;28;20549;-65
2022/03/11 07:23:29;;;;;;;21.48;12.55;;;5.90;99.90;;;;;;5076072;28;20052;-64
2022/03/11 07:25:56;;;;;;;23.70;12.57;;;6.60;99.90;;;;;;5077230;28;20365;-64
2022/03/11 07:28:23;;;;;;;22.08;12.32;;;7.40;99.90;;;;;;5075749;28;20134;-66
2022/03/11 07:30:50;;;;;;;22.20;13.23;;;8.10;99.90;;;;;;5077332;28;20048;-65
2022/03/11 07:33:18;;;;;;;19.45;12.65;;;8.90;98.50;;;;;;5075175;28;20480;-65
2022/03/11 07:35:45;;;;;;;19.83;12.85;;;9.40;95.50;;;;;;5076313;28;20499;-66
2022/03/11 07:38:12;;;;;;;17.77;12.57;;;10.00;95.50;;;;;;5075497;28;20098;-65
2022/03/11 07:40:39;;;;;;;19.35;12.73;;;10.30;93.70;;;;;;5076201;28;20055;-65
2022/03/11 07:43:09;;;;;;;21.23;12.52;;;10.30;92.30;;;;;;5075346;28;20041;-65
2022/03/11 07:45:35;;;;;;;18.13;12.60;;;10.50;91.60;;;;;;5075776;28;20403;-65
2022/03/11 07:48:02;;;;;;;21.63;12.85;;;10.70;91.40;;;;;;5076168;28;20075;-65
2022/03/11 07:50:32;;;;;;;21.27;12.38;;;10.70;90.80;;;;;;5075827;28;20080;-65
2022/03/11 07:52:58;;;;;;;20.02;12.57;;;11.10;90.10;;;;;;5074999;28;20051;-66
2022/03/11 07:55:25;;;;;;;22.98;14.32;;;11.30;87.90;;;;;;5076046;28;20052;-66
2022/03/11 07:57:52;;;;;;;21.15;13.15;;;11.10;87.80;;;;;;5076673;28;20053;-66
2022/03/11 08:00:20;;;;;;;21.75;13.77;;;11.30;86.40;;;;;;5075294;28;20052;-65
2022/03/11 08:02:46;;;;;;;18.27;13.70;;;11.30;86.40;;;;;;5075325;28;20076;-65
2022/03/11 08:05:15;;;;;;;16.73;11.73;;;11.50;85.70;;;;;;5076027;28;20389;-66
2022/03/11 08:07:46;;;;;;;19.63;11.93;;;12.00;84.80;;;;;;5073414;28;20058;-65
2022/03/11 08:10:13;;;;;;;18.50;12.30;;;12.00;82.60;;;;;;5072598;28;20059;-65
2022/03/11 08:12:40;;;;;;;18.92;12.98;;;12.20;82.50;;;;;;5072048;28;20577;-66
2022/03/11 08:15:07;;;;;;;19.27;12.63;;;12.50;82.00;;;;;;5072326;28;20056;-66
2022/03/11 08:17:34;;;;;;;18.05;12.25;;;12.70;80.80;;;;;;5073674;28;20048;-65
2022/03/11 08:20:02;;;;;;;17.92;12.85;;;13.10;79.30;;;;;;5073310;28;20052;-65
2022/03/11 08:22:29;;;;;;;19.63;13.05;;;13.60;79.40;;;;;;5071511;28;20489;-65
2022/03/11 08:24:58;;;;;;;18.58;13.00;;;13.80;76.00;;;;;;5073380;28;20051;-66
2022/03/11 08:27:25;;;;;;;32.38;12.95;;;13.80;75.50;;;;;;5072753;28;20045;-66
2022/03/11 08:29:52;;;;;;;20.48;13.23;;;13.70;76.00;;;;;;5072634;28;20049;-66
2022/03/11 08:32:19;;;;;;;19.45;12.82;;;13.90;74.80;;;;;;5073285;28;20454;-66
2022/03/11 08:34:45;;;;;;;22.05;12.82;;;14.40;75.60;;;;;;5072041;28;20052;-66
2022/03/11 08:37:12;;;;;;;17.60;12.63;;;14.30;72.20;;;;;;5071899;28;20052;-66
2022/03/11 08:39:39;;;;;;;17.63;12.57;;;14.40;71.30;;;;;;5072655;28;20117;-66
2022/03/11 08:42:08;;;;;;;18.67;13.20;;;14.60;72.30;;;;;;5070625;28;20052;-66
2022/03/11 08:44:35;;;;;;;16.50;11.88;;;14.40;70.80;;;;;;5071009;28;20058;-66
2022/03/11 08:47:02;;;;;;;17.73;13.05;;;14.40;71.00;;;;;;5071754;28;20169;-66
2022/03/11 08:49:29;;;;;;;20.00;13.15;;;14.50;70.20;;;;;;5071404;28;20048;-66
2022/03/11 08:51:56;;;;;;;19.58;12.90;;;14.90;71.00;;;;;;5071300;28;20056;-66
2022/03/11 08:54:23;;;;;;;17.60;11.85;;;15.20;70.60;;;;;;5070695;28;20470;-66
2022/03/11 08:56:52;;;;;;;18.63;12.57;;;15.30;67.80;;;;;;5070279;28;20052;-66
2022/03/11 08:59:20;;;;;;;18.23;12.48;;;15.00;67.30;;;;;;5071572;28;20076;-66
2022/03/11 09:01:48;;;;;;;19.52;13.48;;;14.90;67.50;;;;;;5071574;28;20056;-66
2022/03/11 09:04:15;;;;;;;17.55;11.88;;;14.90;67.50;;;;;;5071161;28;20144;-66
2022/03/11 09:06:41;;;;;;;23.33;12.75;;;14.90;67.30;;;;;;5070342;28;20412;-66
2022/03/11 09:09:09;;;;;;;19.00;12.57;;;15.20;67.70;;;;;;5071946;28;20106;-66
2022/03/11 09:11:36;;;;;;;16.45;11.77;;;15.30;67.10;;;;;;5070893;28;20052;-66
2022/03/11 09:14:03;;;;;;;19.13;13.18;;;15.50;66.40;;;;;;5071448;28;20050;-66
2022/03/11 09:16:32;;;;;;;17.55;12.20;;;15.30;65.10;;;;;;5069327;28;20048;-66
2022/03/11 09:18:59;;;;;;;17.67;12.30;;;15.50;64.80;;;;;;5071108;28;20411;-68
2022/03/11 09:21:28;;;;;;;16.45;12.05;;;15.80;65.10;;;;;;5071960;28;20507;-66
2022/03/11 09:23:55;;;;;;;16.70;12.63;;;15.60;64.20;;;;;;5070159;28;20139;-66
2022/03/11 09:26:22;;;;;;;22.33;12.55;;;15.50;63.70;;;;;;5071127;28;20108;-66
2022/03/11 09:28:50;;;;;;;19.20;13.18;;;15.40;63.30;;;;;;5072483;28;20056;-66
2022/03/11 09:31:17;;;;;;;17.23;12.43;;;14.60;63.90;;;;;;5065368;28;20577;-66
2022/03/11 09:33:46;;;;;;;18.88;11.70;;;14.80;64.00;;;;;;5070593;28;20056;-66
2022/03/11 09:36:13;;;;;;;17.95;12.68;;;15.00;64.40;;;;;;5072591;28;20060;-66
2022/03/11 09:38:40;;;;;;;18.67;12.15;;;15.10;65.20;;;;;;5070209;28;20058;-65
2022/03/11 09:41:08;;;;;;;17.38;12.50;;;15.80;62.80;;;;;;5065812;28;20090;-66
2022/03/11 09:43:36;;;;;;;16.20;12.18;;;16.40;63.60;;;;;;5072068;28;20094;-65
2022/03/11 09:46:04;;;;;;;18.95;12.60;;;16.80;61.10;;;;;;5070346;28;20496;-65
2022/03/11 09:48:33;;;;;;;15.48;11.80;;;15.90;60.20;;;;;;5065527;28;20094;-65
2022/03/11 09:51:01;;;;;;;16.40;12.32;;;15.70;60.90;;;;;;5071015;28;20052;-66
2022/03/11 09:53:28;;;;;;;17.85;12.57;;;15.80;60.70;;;;;;5070132;28;20044;-66
2022/03/11 09:55:55;;;;;;;16.55;12.68;;;15.70;60.00;;;;;;5071044;28;20060;-65
2022/03/11 09:58:22;;;;;;;17.92;11.77;;;15.50;60.60;;;;;;5071492;28;20051;-65
2022/03/11 10:00:49;;;;;;;17.20;12.80;;;15.60;60.90;;;;;;5070021;28;20097;-65
2022/03/11 10:03:17;;;;;;;18.60;12.75;;;15.50;60.30;;;;;;5070533;28;20048;-66
2022/03/11 10:05:48;;;;;;;16.75;12.98;;;15.90;60.60;;;;;;5068087;28;20101;-66
2022/03/11 10:08:17;;;;;;;19.40;13.18;;;16.10;60.40;;;;;;5070678;28;20122;-66
2022/03/11 10:10:45;;;;;;;18.05;11.95;;;16.70;60.00;;;;;;5071823;28;20129;-66
2022/03/11 10:13:13;;;;;;;17.27;12.98;;;17.20;59.00;;;;;;5069698;28;20045;-65
2022/03/11 10:15:41;;;;;;;17.42;11.77;;;17.10;57.90;;;;;;5070559;28;20082;-65
2022/03/11 10:18:09;;;;;;;18.30;12.00;;;16.80;57.40;;;;;;5069689;28;20055;-65
2022/03/11 10:20:37;;;;;;;17.60;12.57;;;16.90;57.80;;;;;;5070179;28;20071;-66
2022/03/11 10:23:09;;;;;;;16.42;12.68;;;16.70;57.60;;;;;;5070286;28;20058;-67
2022/03/11 10:25:38;;;;;;;17.98;12.52;;;16.50;57.80;;;;;;5070226;28;20476;-66
2022/03/11 10:28:08;;;;;;;15.05;11.70;;;16.20;58.00;;;;;;5069789;28;20067;-66
2022/03/11 10:30:37;;;;;;;15.32;11.30;;;16.40;58.20;;;;;;5068239;28;20496;-66
2022/03/11 10:33:06;;;;;;;17.58;12.10;;;16.30;57.80;;;;;;5067057;28;20048;-66
2022/03/11 10:35:36;;;;;;;16.02;12.32;;;15.80;58.20;;;;;;5069292;28;20109;-67
2022/03/11 10:38:07;;;;;;;18.02;13.18;;;15.60;58.70;;;;;;5069562;28;20048;-66
2022/03/11 10:40:36;;;;;;;18.13;13.13;;;16.00;59.10;;;;;;5069601;28;20052;-66
2022/03/11 10:43:15;;;;;;;18.98;12.70;;;16.20;58.70;;;;;;5066556;28;20052;-66
2022/03/11 10:45:47;;;;;;;18.05;12.45;;;16.60;58.00;;;;;;5065399;28;20048;-67
2022/03/11 10:48:15;;;;;;;17.52;13.27;;;16.80;57.80;;;;;;5069090;28;20098;-66
2022/03/11 10:50:42;;;;;;;18.70;12.60;;;16.80;57.40;;;;;;5070734;28;20087;-66
2022/03/11 10:53:11;;;;;;;16.48;12.23;;;17.20;57.40;;;;;;5069647;28;20461;-66
2022/03/11 10:55:39;;;;;;;19.60;12.68;;;17.70;57.00;;;;;;5067952;28;20041;-66
2022/03/11 10:58:08;;;;;;;17.95;13.10;;;17.60;56.10;;;;;;5068432;28;20060;-66
2022/03/11 11:00:39;;;;;;;16.73;12.18;;;17.60;56.30;;;;;;5069849;28;20462;-67
2022/03/11 11:03:08;;;;;;;19.52;13.77;;;17.70;56.60;;;;;;5069113;28;20687;-66
2022/03/11 11:05:36;;;;;;;17.25;12.88;;;17.50;56.00;;;;;;5068217;28;20086;-66
2022/03/11 11:08:05;;;;;;;18.30;12.48;;;17.70;56.70;;;;;;5071195;28;20056;-67
2022/03/11 11:10:34;;;;;;;17.13;12.88;;;17.80;55.80;;;;;;5050627;28;20045;-67
2022/03/11 11:13:02;;;;;;;19.38;13.52;;;17.50;55.70;;;;;;5060945;28;20488;-66
2022/03/11 11:15:29;;;;;;;15.25;12.07;;;17.30;55.00;;;;;;5062598;28;20055;-66
2022/03/11 11:18:01;;;;;;;17.38;12.70;;;17.70;55.50;;;;;;5066143;28;20066;-65
2022/03/11 11:20:39;;;;;;;16.05;12.27;;;17.70;55.30;;;;;;5063062;28;20114;-65
2022/03/11 11:23:08;;;;;;;18.20;12.35;;;17.70;54.80;;;;;;5054908;28;20103;-66
2022/03/11 11:25:37;;;;;;;18.08;12.57;;;18.00;55.30;;;;;;5060542;28;20639;-66
2022/03/11 11:28:08;;;;;;;23.58;13.18;;;18.00;54.50;;;;;;5064089;28;20155;-65
2022/03/11 11:30:35;;;;;;;17.75;11.32;;;18.20;54.30;;;;;;5057472;28;20466;-65
2022/03/11 11:33:04;;;;;;;18.15;12.43;;;18.50;53.70;;;;;;5060152;28;20496;-66
2022/03/11 11:35:33;;;;;;;14.98;12.20;;;18.30;53.90;;;;;;5059940;28;20060;-66
2022/03/11 11:38:01;;;;;;;16.98;12.32;;;18.80;53.80;;;;;;5064319;28;20468;-66
2022/03/11 11:40:32;;;;;;;17.02;11.88;;;18.80;53.80;;;;;;5057566;28;20098;-66
2022/03/11 11:43:27;;;;;;;14.88;11.77;;;18.50;53.50;;;;;;5060075;28;20492;-66
2022/03/11 11:46:05;;;;;;;18.85;12.15;;;18.60;52.70;;;;;;5063874;28;20053;-66
2022/03/11 11:49:06;;;;;;;14.75;11.95;;;18.10;52.40;;;;;;5063298;28;20049;-66
2022/03/11 11:51:52;;;;;;;;;;;18.10;53.30;;;;;;5062660;28;20064;-66
2022/03/11 11:54:37;;;;;;;16.38;12.75;;;18.50;52.80;;;;;;5064282;28;19997;-66
2022/03/11 11:57:05;;;;;;;15.95;11.93;;;18.40;52.70;;;;;;5064931;28;20056;-66
2022/03/11 11:59:36;;;;;;;15.70;11.05;;;18.10;53.10;;;;;;5065766;28;20048;-65
2022/03/11 12:02:23;;;;;;;14.85;12.40;;;18.30;52.40;;;;;;5059824;28;20084;-65
2022/03/11 12:04:51;;;;;;;15.18;12.07;;;18.20;52.80;;;;;;5063901;28;20500;-66
2022/03/11 12:07:20;;;;;;;18.63;12.20;;;18.50;52.20;;;;;;5059881;28;20053;-66
2022/03/11 12:09:51;;;;;;;17.77;12.23;;;18.60;53.30;;;;;;5069248;28;21491;-66
2022/03/11 12:12:54;;;;;;;18.63;11.27;;;18.90;52.50;;;;;;5065948;28;20135;-66
2022/03/11 12:15:24;;;;;;;16.30;11.90;;;18.80;51.80;;;;;;5064009;28;20102;-66
2022/03/11 12:17:56;;;;;;;16.02;11.77;;;18.70;51.90;;;;;;5062223;28;20450;-66
2022/03/11 12:20:45;;;;;;;14.95;11.75;;;19.10;52.30;;;;;;5059755;28;20502;-65
2022/03/11 12:23:13;;;;;;;18.40;11.60;;;19.00;52.30;;;;;;5063556;28;20064;-66
2022/03/11 12:25:44;;;;;;;14.88;11.13;;;19.20;51.60;;;;;;5060302;28;20519;-65
2022/03/11 12:28:11;;;;;;;;;;;19.00;51.30;;;;;;5060348;28;20061;-65
2022/03/11 12:30:43;;;;;;;15.82;10.77;;;18.30;52.00;;;;;;5067790;28;19942;-65
2022/03/11 12:33:12;;;;;;;16.33;12.48;;;18.00;51.40;;;;;;5056744;28;20496;-66
2022/03/11 12:35:41;;;;;;;17.33;11.57;;;18.00;51.90;;;;;;5060679;28;20500;-62
2022/03/11 12:38:12;;;;;;;16.33;11.32;;;18.00;51.80;;;;;;5062987;28;20123;-61
2022/03/11 12:40:40;;;;;;;17.40;11.38;;;17.80;51.60;;;;;;5064203;28;20056;-61